Time;durP1;ratioP1;P1;durP2;ratioP2;P2;SDS_P1;SDS_P2;PMS_P1;PMS_P2;Temp;Humidity;BMP_temperature;BMP_pressure;BME280_temperature;BME280_humidity;BME280_pressure;Samples;Min_cycle;Max_cycle;Signal;HPM_P1;HPM_P2
2022/08/02 00:01:53;;;;;;;12.75;3.45;;;25.20;99.90;;;;;;4902777;29;20107;-91
2022/08/02 00:04:20;;;;;;;12.65;3.75;;;25.20;99.90;;;;;;4902369;29;20135;-92
2022/08/02 00:06:47;;;;;;;11.15;2.95;;;25.20;99.90;;;;;;4902519;29;20044;-92
2022/08/02 00:09:15;;;;;;;10.45;3.90;;;25.20;99.90;;;;;;4901882;29;20031;-93
2022/08/02 00:11:41;;;;;;;16.48;3.85;;;25.20;99.90;;;;;;4901523;29;20482;-92
2022/08/02 00:14:08;;;;;;;13.07;3.22;;;25.20;99.90;;;;;;4901705;29;20371;-92
2022/08/02 00:16:35;;;;;;;9.10;3.30;;;25.20;99.90;;;;;;4901668;29;20036;-93
2022/08/02 00:19:02;;;;;;;10.77;3.13;;;25.20;99.90;;;;;;4913610;29;20040;-93
2022/08/02 00:21:30;;;;;;;14.77;3.53;;;25.20;99.90;;;;;;4917831;29;20028;-93
2022/08/02 00:23:57;;;;;;;10.13;3.60;;;25.20;99.90;;;;;;4905286;29;20036;-93
2022/08/02 00:26:24;;;;;;;15.65;3.17;;;25.20;99.90;;;;;;4901443;29;20032;-94
2022/08/02 00:28:50;;;;;;;9.20;3.10;;;25.10;99.90;;;;;;4901000;29;20453;-94
2022/08/02 00:31:17;;;;;;;15.57;3.95;;;25.10;99.90;;;;;;4904335;29;20032;-94
2022/08/02 00:33:44;;;;;;;8.82;3.40;;;25.10;99.90;;;;;;4904937;29;20039;-93
2022/08/02 00:36:11;;;;;;;13.05;4.00;;;25.10;99.90;;;;;;4905723;29;20618;-93
2022/08/02 00:38:38;;;;;;;14.75;3.40;;;25.10;99.90;;;;;;4904786;29;20488;-92
2022/08/02 00:41:13;;;;;;;13.25;3.75;;;25.10;99.90;;;;;;4905103;29;20039;-92
2022/08/02 00:43:40;;;;;;;10.75;3.15;;;25.10;99.90;;;;;;4905170;29;20106;-93
2022/08/02 00:46:07;;;;;;;11.27;3.20;;;25.10;99.90;;;;;;4905343;29;20047;-91
2022/08/02 00:48:34;;;;;;;10.68;3.45;;;25.10;99.90;;;;;;4904581;29;20058;-91
2022/08/02 00:51:01;;;;;;;14.85;3.78;;;25.10;99.90;;;;;;4904404;29;20032;-92
2022/08/02 00:53:28;;;;;;;21.83;3.88;;;25.00;99.90;;;;;;4906695;29;20032;-94
2022/08/02 00:55:55;;;;;;;13.48;3.58;;;25.00;99.90;;;;;;4904568;29;20123;-93
2022/08/02 00:58:22;;;;;;;11.18;3.47;;;25.00;99.90;;;;;;4904307;29;20119;-94
2022/08/02 01:00:49;;;;;;;12.60;3.75;;;25.00;99.90;;;;;;4903941;29;20387;-92
2022/08/02 01:03:16;;;;;;;16.50;4.57;;;24.90;99.90;;;;;;4903243;29;20054;-93
2022/08/02 01:05:44;;;;;;;12.13;3.33;;;24.90;99.90;;;;;;4865459;29;20041;-93
2022/08/02 01:08:11;;;;;;;12.50;3.53;;;24.90;99.90;;;;;;4865574;29;20037;-94
2022/08/02 01:10:38;;;;;;;14.30;3.60;;;24.90;99.90;;;;;;4875695;29;20048;-94
2022/08/02 01:13:05;;;;;;;14.93;3.53;;;25.00;99.90;;;;;;4881670;29;20055;-92
2022/08/02 01:15:37;;;;;;;20.15;4.10;;;25.00;99.90;;;;;;4874169;29;20124;-93
2022/08/02 01:18:08;;;;;;;10.20;3.63;;;24.90;99.90;;;;;;4866580;29;20080;-93
2022/08/02 01:20:53;;;;;;;13.32;3.72;;;24.90;99.90;;;;;;4865571;29;20048;-93
2022/08/02 01:23:44;;;;;;;11.73;3.67;;;24.90;99.90;;;;;;4865253;29;20029;-92
2022/08/02 01:26:35;;;;;;;13.52;3.88;;;24.90;99.90;;;;;;4865382;29;20037;-94
2022/08/02 01:29:05;;;;;;;9.43;3.55;;;24.90;99.90;;;;;;4865121;29;20041;-93
2022/08/02 01:31:40;;;;;;;13.38;4.63;;;24.90;99.90;;;;;;4865551;29;20045;-93
2022/08/02 01:34:28;;;;;;;10.30;3.40;;;24.90;99.90;;;;;;4865201;29;20466;-94
2022/08/02 01:37:21;;;;;;;13.25;4.38;;;24.90;99.90;;;;;;4887605;29;20044;-93
2022/08/02 01:39:59;;;;;;;16.75;3.97;;;24.90;99.90;;;;;;4881420;29;20064;-93
2022/08/02 01:42:29;;;;;;;13.65;4.10;;;24.90;99.90;;;;;;4902865;29;20068;-93
2022/08/02 01:44:57;;;;;;;16.48;4.18;;;24.80;99.90;;;;;;4903167;29;20032;-93
2022/08/02 01:47:34;;;;;;;12.18;4.32;;;24.80;99.90;;;;;;4902660;29;20036;-93
2022/08/02 01:50:03;;;;;;;12.07;3.50;;;24.80;99.90;;;;;;4902679;29;20367;-93
2022/08/02 01:52:34;;;;;;;13.95;3.63;;;24.70;99.90;;;;;;4902809;29;20036;-92
2022/08/02 01:55:04;;;;;;;17.77;4.30;;;24.70;99.90;;;;;;4904065;29;20085;-93
2022/08/02 01:57:36;;;;;;;17.60;4.68;;;24.60;99.90;;;;;;4922135;29;20044;-93
2022/08/02 02:00:07;;;;;;;18.40;4.63;;;24.60;99.90;;;;;;4851028;29;1930388;-93
2022/08/02 02:02:39;;;;;;;10.07;3.92;;;24.60;99.90;;;;;;4903925;29;20031;-93
2022/08/02 02:05:10;;;;;;;12.52;4.15;;;24.60;99.90;;;;;;4904514;29;20036;-93
2022/08/02 02:07:39;;;;;;;14.05;4.50;;;24.50;99.90;;;;;;4903789;29;20126;-92
2022/08/02 02:10:11;;;;;;;12.45;4.38;;;24.50;99.90;;;;;;4903295;29;20032;-92
2022/08/02 02:12:40;;;;;;;14.15;4.88;;;24.50;99.90;;;;;;4903346;29;20038;-94
2022/08/02 02:15:10;;;;;;;19.20;5.15;;;24.50;99.90;;;;;;4903435;29;20095;-91
2022/08/02 02:17:43;;;;;;;15.70;4.95;;;24.40;99.90;;;;;;4884736;29;20044;-91
2022/08/02 02:20:16;;;;;;;20.38;4.55;;;24.40;99.90;;;;;;4903056;29;20032;-91
2022/08/02 02:22:43;;;;;;;14.93;4.40;;;24.40;99.90;;;;;;4903212;29;20025;-92
2022/08/02 02:25:13;;;;;;;8.23;3.80;;;24.40;99.90;;;;;;4902912;29;20036;-93
2022/08/02 02:27:52;;;;;;;17.20;4.53;;;24.40;99.90;;;;;;4902755;29;20401;-93
2022/08/02 02:30:19;;;;;;;12.52;4.78;;;24.40;99.90;;;;;;4902888;29;20040;-92
2022/08/02 02:32:50;;;;;;;12.52;5.30;;;24.40;99.90;;;;;;4902831;29;20115;-92
2022/08/02 02:35:18;;;;;;;13.38;4.50;;;24.40;99.90;;;;;;4903228;29;20032;-94
2022/08/02 02:37:47;;;;;;;15.98;4.18;;;24.40;99.90;;;;;;4902551;29;20131;-94
2022/08/02 02:40:15;;;;;;;13.10;3.97;;;24.40;99.90;;;;;;4902770;29;20107;-93
2022/08/02 02:42:45;;;;;;;13.93;4.28;;;24.40;99.90;;;;;;4902951;29;20042;-93
2022/08/02 02:45:35;;;;;;;14.23;4.75;;;24.40;99.90;;;;;;4902885;29;20032;-92
2022/08/02 02:48:05;;;;;;;19.23;4.72;;;24.40;99.90;;;;;;4912031;29;20060;-93
2022/08/02 02:50:33;;;;;;;18.02;4.20;;;24.40;99.90;;;;;;4918022;29;20032;-94
2022/08/02 02:53:01;;;;;;;16.30;4.80;;;24.40;99.90;;;;;;4891974;29;20032;-93
2022/08/02 02:55:28;;;;;;;14.65;4.25;;;24.30;99.90;;;;;;4902447;29;20024;-93
2022/08/02 02:57:56;;;;;;;16.08;4.65;;;24.30;99.90;;;;;;4902394;29;20040;-93
2022/08/02 03:06:29;;;;;;;10.20;4.45;;;24.20;99.90;;;;;;5302213;23;20091;-92
2022/08/02 03:08:56;;;;;;;12.18;4.13;;;24.20;99.90;;;;;;4904774;29;20047;-92
2022/08/02 03:11:28;;;;;;;11.40;4.47;;;24.10;99.90;;;;;;4905588;29;20036;-92
2022/08/02 03:13:59;;;;;;;14.48;4.53;;;24.10;99.90;;;;;;4887804;29;20042;-93
2022/08/02 03:59:14;;;;;;;19.27;6.07;;;23.90;99.90;;;;;;5886438;23;20023;-93
2022/08/02 04:02:52;;;;;;;16.40;5.68;;;23.90;99.90;;;;;;4773869;30;20060;-93
2022/08/02 04:11:39;;;;;;;15.23;5.82;;;24.00;99.90;;;;;;4933295;23;20052;-93
2022/08/02 04:14:10;;;;;;;12.35;5.22;;;24.10;99.90;;;;;;4904706;29;20047;-93
2022/08/02 04:17:22;;;;;;;13.05;5.72;;;24.10;99.90;;;;;;5016757;23;20056;-93
2022/08/02 04:20:19;;;;;;;11.45;6.13;;;24.10;99.90;;;;;;4903785;29;20039;-92
2022/08/02 04:31:00;;;;;;;13.55;6.00;;;24.20;99.90;;;;;;4898017;29;20815;-93
2022/08/02 05:42:44;;;;;;;13.45;5.05;;;33.40;99.90;;;;;;5136339;23;20068;-94
2022/08/02 05:49:07;;;;;;;12.43;6.10;;;32.80;99.90;;;;;;5097881;23;20143;-93
2022/08/02 05:52:07;;;;;;;9.35;6.03;;;33.20;99.90;;;;;;4926194;29;20021;-93
2022/08/02 06:00:12;;;;;;;9.15;7.95;;;33.00;99.90;;;;;;5594641;23;20096;-94
2022/08/02 06:03:15;;;;;;;13.35;7.32;;;33.90;99.90;;;;;;4893082;29;20036;-94
2022/08/02 06:09:50;;;;;;;11.43;7.05;;;33.50;99.90;;;;;;4893770;29;20048;-93
2022/08/02 06:12:18;;;;;;;9.10;7.93;;;32.90;99.90;;;;;;4874229;29;20139;-94
2022/08/02 06:14:51;;;;;;;9.25;8.38;;;33.00;99.90;;;;;;4857138;29;20021;-93
2022/08/02 06:17:24;;;;;;;9.88;8.77;;;33.00;99.90;;;;;;4870183;29;20047;-94
2022/08/02 06:20:03;;;;;;;10.10;9.25;;;33.00;99.90;;;;;;4854195;29;20029;-93
2022/08/02 06:22:35;;;;;;;11.30;10.40;;;33.20;99.90;;;;;;4867242;29;20085;-93
2022/08/02 06:25:29;;;;;;;11.43;10.38;;;33.60;99.90;;;;;;4854722;29;20037;-93
2022/08/02 06:28:13;;;;;;;12.02;10.93;;;34.50;99.90;;;;;;4870445;29;20037;-94
2022/08/02 06:31:01;;;;;;;12.05;10.75;;;33.90;99.90;;;;;;4857300;29;20072;-94
2022/08/02 06:33:39;;;;;;;11.90;10.90;;;33.40;99.90;;;;;;4854632;29;20037;-93
2022/08/02 06:36:37;;;;;;;14.85;11.20;;;33.30;99.90;;;;;;4856079;29;20041;-94
2022/08/02 06:39:19;;;;;;;11.88;10.88;;;33.30;99.90;;;;;;4853040;29;20064;-91
2022/08/02 06:41:49;;;;;;;11.32;10.65;;;33.30;99.90;;;;;;4849943;29;20033;-89
2022/08/02 06:44:24;;;;;;;11.85;10.88;;;33.80;99.90;;;;;;4850943;29;20033;-91
2022/08/02 06:46:50;;;;;;;12.23;11.23;;;33.60;99.90;;;;;;4850473;29;20399;-91
2022/08/02 06:49:17;;;;;;;11.95;11.15;;;33.80;99.90;;;;;;4850666;29;20104;-92
2022/08/02 06:51:44;;;;;;;12.13;11.15;;;33.90;99.90;;;;;;4850846;29;20040;-92
2022/08/02 06:54:29;;;;;;;11.88;11.00;;;34.00;99.90;;;;;;4850299;29;20036;-91
2022/08/02 06:56:56;;;;;;;12.48;11.57;;;34.30;99.90;;;;;;4849459;29;20155;-91
2022/08/02 06:59:25;;;;;;;12.05;11.35;;;34.40;99.90;;;;;;4849493;29;20083;-92
2022/08/02 07:01:58;;;;;;;12.95;11.85;;;34.40;99.90;;;;;;4849733;29;20059;-90
2022/08/02 07:04:25;;;;;;;12.30;11.40;;;34.10;99.90;;;;;;4849463;29;20037;-92
2022/08/02 07:06:52;;;;;;;11.88;10.90;;;33.70;99.90;;;;;;4849382;29;20490;-90
2022/08/02 07:09:18;;;;;;;11.85;11.00;;;33.80;99.90;;;;;;4849308;29;20029;-93
2022/08/02 07:11:45;;;;;;;13.73;12.18;;;33.90;99.90;;;;;;4849198;29;20120;-92
2022/08/02 07:14:12;;;;;;;12.77;11.95;;;34.30;99.90;;;;;;4849378;29;20025;-91
2022/08/02 07:16:38;;;;;;;11.93;11.07;;;34.20;99.90;;;;;;4849134;29;20041;-91
2022/08/02 07:19:05;;;;;;;11.80;11.10;;;33.60;99.90;;;;;;4849475;29;20033;-91
2022/08/02 07:21:35;;;;;;;12.43;11.55;;;33.50;99.90;;;;;;4849041;29;20056;-91
2022/08/02 07:24:02;;;;;;;12.43;11.57;;;33.80;99.90;;;;;;4849109;29;20563;-91
2022/08/02 07:26:28;;;;;;;12.18;11.48;;;33.80;99.90;;;;;;4849158;29;20173;-92
2022/08/02 07:28:55;;;;;;;12.40;11.50;;;33.60;99.90;;;;;;4864413;29;20033;-91
2022/08/02 07:31:21;;;;;;;12.05;11.25;;;33.70;99.90;;;;;;4848901;29;20032;-91
2022/08/02 07:33:48;;;;;;;12.25;11.35;;;33.40;99.90;;;;;;4864796;29;20391;-93
2022/08/02 07:36:15;;;;;;;12.25;11.45;;;33.50;99.90;;;;;;4850794;29;20524;-91
2022/08/02 07:38:41;;;;;;;12.27;11.48;;;33.60;99.90;;;;;;4851558;29;20057;-93
2022/08/02 07:41:08;;;;;;;12.10;11.30;;;34.00;99.90;;;;;;4851230;29;20044;-91
2022/08/02 07:43:35;;;;;;;12.15;11.30;;;34.30;99.90;;;;;;4864193;29;20554;-91
2022/08/02 07:46:01;;;;;;;11.77;11.07;;;34.20;99.90;;;;;;4864333;29;20041;-92
2022/08/02 07:48:28;;;;;;;12.27;10.98;;;34.30;99.90;;;;;;4848968;29;20120;-93
2022/08/02 07:50:58;;;;;;;12.52;11.63;;;34.40;99.90;;;;;;4864176;29;20037;-92
2022/08/02 07:53:28;;;;;;;12.85;12.00;;;34.90;99.90;;;;;;4848961;29;20029;-92
2022/08/02 07:55:54;;;;;;;12.35;11.45;;;34.70;99.90;;;;;;4848771;29;20037;-93
2022/08/02 07:58:21;;;;;;;13.30;11.90;;;34.10;99.90;;;;;;4848570;29;20063;-91
2022/08/02 08:00:47;;;;;;;12.27;11.52;;;34.10;99.90;;;;;;4848642;29;20056;-91
2022/08/02 08:03:18;;;;;;;12.52;11.73;;;34.00;99.90;;;;;;4848630;29;20084;-93
2022/08/02 08:05:45;;;;;;;11.95;11.25;;;33.60;99.90;;;;;;4848721;29;20036;-92
2022/08/02 08:08:11;;;;;;;11.98;11.27;;;34.10;99.90;;;;;;4848761;29;20036;-92
2022/08/02 08:10:40;;;;;;;12.43;11.40;;;34.50;99.90;;;;;;4848582;29;20399;-93
2022/08/02 08:13:07;;;;;;;12.23;11.25;;;34.30;99.90;;;;;;4849399;29;20033;-93
2022/08/02 08:15:33;;;;;;;12.57;11.77;;;34.90;99.90;;;;;;4848398;29;20033;-91
2022/08/02 08:18:00;;;;;;;12.02;11.23;;;34.70;99.90;;;;;;4850829;29;20044;-94
2022/08/02 08:20:36;;;;;;;11.80;11.20;;;34.80;99.90;;;;;;4867454;29;20029;-92
2022/08/02 08:23:03;;;;;;;12.93;12.13;;;34.40;99.90;;;;;;4848772;29;20469;-91
2022/08/02 08:25:54;;;;;;;12.55;11.80;;;34.60;99.90;;;;;;4864597;29;20029;-93
2022/08/02 08:28:38;;;;;;;12.55;11.48;;;34.30;99.90;;;;;;4871821;29;20120;-93
2022/08/02 08:35:35;;;;;;;13.00;11.82;;;34.30;99.90;;;;;;4855283;29;20058;-93
2022/08/02 09:42:40;;;;;;;;;;;;;;;;;;;;;
2022/08/02 09:45:39;;;;;;;;;;;;;;;;;;;;;
2022/08/02 10:06:12;;;;;;;13.40;12.50;;;33.60;97.30;;;;;;4788788;29;20059;-93
2022/08/02 10:12:24;;;;;;;13.77;12.95;;;33.60;96.90;;;;;;4892126;29;20056;-94
2022/08/02 10:15:19;;;;;;;13.30;12.57;;;33.20;97.20;;;;;;4920663;29;20045;-93
2022/08/02 10:57:27;;;;;;;14.20;13.43;;;33.50;98.00;;;;;;5005723;23;20044;-93
2022/08/02 11:01:04;;;;;;;13.75;12.90;;;33.30;97.40;;;;;;4894557;29;20036;-92
2022/08/02 11:04:13;;;;;;;13.38;12.68;;;33.20;96.20;;;;;;4828623;29;20057;-93
2022/08/02 11:07:13;;;;;;;13.90;13.10;;;33.70;96.80;;;;;;4817420;29;20073;-92
2022/08/02 11:10:02;;;;;;;15.38;14.05;;;33.40;97.50;;;;;;4815001;29;20042;-92
2022/08/02 11:13:10;;;;;;;14.23;13.23;;;33.70;98.00;;;;;;4798283;29;20543;-92
2022/08/02 11:16:08;;;;;;;14.55;13.45;;;33.40;98.30;;;;;;4803945;29;20038;-94
2022/08/02 11:19:10;;;;;;;14.73;13.73;;;33.40;97.90;;;;;;4821598;29;20048;-94
2022/08/02 11:26:38;;;;;;;;;;;;;;;;;;;;;
2022/08/02 11:29:48;;;;;;;15.50;14.15;;;33.40;97.20;;;;;;5246348;23;20087;-92
2022/08/02 11:32:45;;;;;;;17.27;16.05;;;33.20;97.30;;;;;;4915065;29;20047;-93
2022/08/02 11:36:01;;;;;;;;;;;;;;;;;;;;;
2022/08/02 13:50:29;;;;;;;15.43;13.80;;;32.70;96.50;;;;;;4949012;23;20056;-92
2022/08/02 13:55:31;;;;;;;14.55;13.60;;;32.50;97.00;;;;;;4940027;23;20059;-93
2022/08/02 13:58:23;;;;;;;14.05;13.05;;;32.70;96.90;;;;;;4926512;29;20403;-93
2022/08/02 14:00:50;;;;;;;14.00;12.80;;;32.30;96.60;;;;;;4999964;23;20045;-94
2022/08/02 14:09:11;;;;;;;14.27;13.48;;;32.40;96.80;;;;;;4899771;29;20100;-94
2022/08/02 14:11:38;;;;;;;13.38;12.50;;;32.30;96.80;;;;;;4867389;29;20041;-94
2022/08/02 14:22:29;;;;;;;14.27;13.38;;;32.10;98.10;;;;;;4974791;23;20060;-93
2022/08/02 14:24:56;;;;;;;20.00;14.70;;;32.30;97.60;;;;;;5137508;24;20067;-92
2022/08/02 14:33:05;;;;;;;13.52;12.40;;;32.10;97.70;;;;;;4941635;23;20445;-94
2022/08/02 14:36:12;;;;;;;13.57;12.77;;;32.50;98.10;;;;;;4908651;29;20059;-93
2022/08/02 14:43:06;;;;;;;12.60;11.90;;;32.40;98.50;;;;;;5442395;23;20091;-93
2022/08/02 14:45:41;;;;;;;13.02;12.10;;;32.00;98.20;;;;;;4896137;29;20028;-93
2022/08/02 15:15:57;;;;;;;11.32;10.73;;;32.00;98.30;;;;;;4867984;29;20069;-93
2022/08/02 15:18:24;;;;;;;11.50;10.90;;;32.00;98.80;;;;;;4808794;29;20050;-91
2022/08/02 15:20:50;;;;;;;11.80;10.95;;;31.80;99.80;;;;;;4825456;29;20492;-93
2022/08/02 15:23:39;;;;;;;12.55;11.65;;;31.90;99.70;;;;;;5421395;23;20023;-93
2022/08/02 19:57:19;;;;;;;7.05;5.70;;;26.80;99.90;;;;;;1487142;23;21625;31
2022/08/02 20:00:12;;;;;;;8.50;5.32;;;26.80;99.90;;;;;;4888243;29;20037;-92
2022/08/02 20:03:08;;;;;;;5.45;4.25;;;26.80;99.90;;;;;;4809229;29;20038;-93
2022/08/02 20:06:23;;;;;;;6.72;4.88;;;26.70;99.90;;;;;;4824564;29;20095;-93
2022/08/02 20:09:48;;;;;;;8.55;5.18;;;26.70;99.90;;;;;;4824093;29;20050;-94
2022/08/02 20:36:39;;;;;;;13.95;7.85;;;26.40;99.90;;;;;;4936576;29;20134;-92
2022/08/02 20:39:06;;;;;;;10.02;5.10;;;26.40;99.90;;;;;;4971870;23;20067;-92
2022/08/02 20:41:39;;;;;;;12.75;7.20;;;26.40;99.90;;;;;;4905453;29;20058;-92
2022/08/02 20:44:06;;;;;;;10.65;5.88;;;26.40;99.90;;;;;;5261673;23;20067;-93
2022/08/02 20:46:33;;;;;;;10.48;6.65;;;26.40;99.90;;;;;;4902073;29;20032;-92
2022/08/02 20:48:59;;;;;;;9.07;6.57;;;26.40;99.90;;;;;;4905855;29;20088;-95
2022/08/02 20:51:26;;;;;;;9.02;5.82;;;26.30;99.90;;;;;;4906914;29;20033;-92
2022/08/02 20:53:54;;;;;;;9.65;6.30;;;26.30;99.90;;;;;;4909225;29;20044;-94
2022/08/02 20:56:21;;;;;;;9.13;5.43;;;26.30;99.90;;;;;;4906681;29;20036;-91
2022/08/02 20:58:48;;;;;;;11.45;5.90;;;26.30;99.90;;;;;;4905447;29;20054;-92
2022/08/02 21:01:14;;;;;;;10.32;6.10;;;26.30;99.90;;;;;;4905091;29;20036;-92
2022/08/02 21:03:41;;;;;;;7.68;5.78;;;26.30;99.90;;;;;;4905346;29;20032;-94
2022/08/02 21:06:10;;;;;;;7.05;5.93;;;26.30;99.90;;;;;;4905277;29;20051;-93
2022/08/02 21:08:38;;;;;;;10.13;5.13;;;26.30;99.90;;;;;;4904191;29;20040;-91
2022/08/02 21:11:05;;;;;;;14.30;4.68;;;26.30;99.90;;;;;;4904402;29;20036;-91
2022/08/02 21:13:32;;;;;;;11.77;6.85;;;26.30;99.90;;;;;;4904566;29;20042;-91
2022/08/02 21:15:59;;;;;;;11.05;5.07;;;26.30;99.90;;;;;;4904979;29;20092;-93
2022/08/02 21:18:26;;;;;;;9.55;5.47;;;26.30;99.90;;;;;;4904503;29;20115;-91
2022/08/02 21:20:53;;;;;;;7.28;4.68;;;26.20;99.90;;;;;;4904228;29;20115;-92
2022/08/02 21:23:20;;;;;;;8.35;4.28;;;26.20;99.90;;;;;;4904077;29;20119;-93
2022/08/02 21:25:47;;;;;;;7.82;3.78;;;26.20;99.90;;;;;;4904592;29;20027;-94
2022/08/02 21:28:13;;;;;;;5.97;4.30;;;26.20;99.90;;;;;;4904122;29;20083;-91
2022/08/02 21:30:40;;;;;;;7.82;4.10;;;26.20;99.90;;;;;;4904234;29;20035;-92
2022/08/02 21:33:07;;;;;;;5.50;4.10;;;26.20;99.90;;;;;;4903943;29;20024;-95
2022/08/02 21:35:33;;;;;;;4.60;3.97;;;26.20;99.90;;;;;;4904527;29;20087;-90
2022/08/02 21:38:00;;;;;;;5.22;4.28;;;26.20;99.90;;;;;;4904201;29;20043;-92
2022/08/02 21:40:27;;;;;;;8.82;3.53;;;26.20;99.90;;;;;;4907807;29;20134;-92
2022/08/02 21:42:53;;;;;;;7.82;4.18;;;26.20;99.90;;;;;;4906154;29;20028;-93
2022/08/02 21:45:20;;;;;;;5.47;3.70;;;26.10;99.90;;;;;;4888460;29;20040;-91
2022/08/02 21:47:47;;;;;;;6.70;3.60;;;26.10;99.90;;;;;;4904436;29;20032;-92
2022/08/02 21:50:14;;;;;;;5.53;3.80;;;26.20;99.90;;;;;;4904339;29;20043;-94
2022/08/02 21:53:00;;;;;;;5.05;3.20;;;26.20;99.90;;;;;;4908070;29;20095;-91
2022/08/02 21:55:27;;;;;;;5.70;3.50;;;26.10;99.90;;;;;;4905836;29;20030;-93
2022/08/02 21:57:53;;;;;;;4.60;3.58;;;26.10;99.90;;;;;;4903361;29;20493;-91
2022/08/02 22:00:20;;;;;;;12.18;3.30;;;26.10;99.90;;;;;;4887962;29;20028;-91
2022/08/02 22:02:46;;;;;;;6.97;3.85;;;26.10;99.90;;;;;;4903525;29;20052;-91
2022/08/02 22:05:13;;;;;;;6.18;3.50;;;26.10;99.90;;;;;;4903374;29;20043;-91
2022/08/02 22:07:40;;;;;;;5.28;3.15;;;26.10;99.90;;;;;;4903157;29;20032;-95
2022/08/02 22:10:10;;;;;;;8.68;3.50;;;26.10;99.90;;;;;;4903728;29;20537;-92
2022/08/02 22:12:36;;;;;;;4.25;3.20;;;26.10;99.90;;;;;;4903521;29;20040;-93
2022/08/02 22:15:05;;;;;;;5.65;3.22;;;26.10;99.90;;;;;;4903134;29;20029;-91
2022/08/02 22:17:33;;;;;;;4.72;3.20;;;26.10;99.90;;;;;;4884002;29;20123;-90
2022/08/02 22:20:02;;;;;;;7.30;3.55;;;26.00;99.90;;;;;;4889552;29;20028;-93
2022/08/02 22:22:33;;;;;;;5.90;3.30;;;26.00;99.90;;;;;;4893907;29;20024;-91
2022/08/02 22:25:01;;;;;;;6.97;3.53;;;26.00;99.90;;;;;;4901757;29;20490;-90
2022/08/02 22:27:29;;;;;;;6.30;3.28;;;26.00;99.90;;;;;;4884308;29;20112;-91
2022/08/02 22:29:56;;;;;;;5.45;3.33;;;26.00;99.90;;;;;;4869116;29;20036;-90
2022/08/02 22:35:08;;;;;;;6.32;3.63;;;26.00;99.90;;;;;;4909623;29;20040;-91
2022/08/02 22:37:36;;;;;;;6.72;3.75;;;26.00;99.90;;;;;;4905840;29;20045;-91
2022/08/02 22:40:04;;;;;;;6.68;3.80;;;26.00;99.90;;;;;;4905944;29;20055;-92
2022/08/02 22:42:30;;;;;;;7.13;3.97;;;26.00;99.90;;;;;;4905903;29;20035;-91
2022/08/02 22:44:57;;;;;;;7.47;4.32;;;25.90;99.90;;;;;;4906150;29;20055;-94
2022/08/02 22:47:27;;;;;;;7.50;4.97;;;25.90;99.90;;;;;;4906816;29;20036;-93
2022/08/02 22:49:56;;;;;;;9.80;4.60;;;25.80;99.90;;;;;;4906205;29;20036;-91
2022/08/02 22:52:23;;;;;;;10.32;4.10;;;25.70;99.90;;;;;;4906331;29;20091;-91
2022/08/02 22:54:51;;;;;;;9.88;4.35;;;25.60;99.90;;;;;;4906959;29;20032;-91
2022/08/02 22:57:18;;;;;;;6.28;4.15;;;25.50;99.90;;;;;;4906644;29;20031;-92
2022/08/02 22:59:45;;;;;;;9.68;3.58;;;25.50;99.90;;;;;;4905962;29;20039;-92
2022/08/02 23:02:11;;;;;;;5.35;3.90;;;25.50;99.90;;;;;;4906137;29;20043;-93
2022/08/02 23:04:38;;;;;;;7.68;3.97;;;25.50;99.90;;;;;;4905987;29;20516;-93
2022/08/02 23:07:05;;;;;;;8.60;3.60;;;25.50;99.90;;;;;;4905810;29;20070;-93
2022/08/02 23:09:32;;;;;;;8.45;3.80;;;25.50;99.90;;;;;;4905932;29;20496;-91
2022/08/02 23:11:59;;;;;;;8.13;4.03;;;25.50;99.90;;;;;;4905068;29;20071;-96
2022/08/02 23:14:26;;;;;;;7.05;4.05;;;25.50;99.90;;;;;;4906315;29;20024;-93
2022/08/02 23:19:49;;;;;;;5.30;3.55;;;25.50;99.90;;;;;;4924274;29;20040;-91
2022/08/02 23:22:21;;;;;;;7.15;3.95;;;25.50;99.90;;;;;;4905954;29;20103;-91
2022/08/02 23:24:49;;;;;;;5.68;3.40;;;25.40;99.90;;;;;;4906733;29;20028;-92
2022/08/02 23:27:16;;;;;;;5.10;3.25;;;25.40;99.90;;;;;;4905089;29;20067;-91
2022/08/02 23:29:44;;;;;;;7.35;3.88;;;25.50;99.90;;;;;;4905046;29;20028;-92
2022/08/02 23:32:11;;;;;;;5.07;3.40;;;25.50;99.90;;;;;;4904892;29;20440;-91
2022/08/02 23:34:42;;;;;;;8.52;3.65;;;25.50;99.90;;;;;;4904893;29;20031;-89
2022/08/02 23:37:09;;;;;;;8.35;3.67;;;25.50;99.90;;;;;;4905097;29;20602;-90
2022/08/02 23:39:35;;;;;;;7.57;3.42;;;25.50;99.90;;;;;;4905037;29;20069;-91
2022/08/02 23:42:03;;;;;;;7.78;3.65;;;25.50;99.90;;;;;;4904865;29;20393;-91
2022/08/02 23:44:30;;;;;;;4.28;3.45;;;25.50;99.90;;;;;;4904613;29;20048;-92
2022/08/02 23:46:59;;;;;;;4.68;3.55;;;25.50;99.90;;;;;;4904928;29;20028;-91
2022/08/02 23:49:27;;;;;;;4.45;3.28;;;25.50;99.90;;;;;;4904605;29;20055;-91
2022/08/02 23:51:57;;;;;;;9.48;3.75;;;25.50;99.90;;;;;;4904684;29;20032;-91
2022/08/02 23:54:24;;;;;;;4.80;3.72;;;25.50;99.90;;;;;;4904616;29;20556;-92
2022/08/02 23:57:00;;;;;;;7.32;3.30;;;25.50;99.90;;;;;;4904641;29;20068;-90
2022/08/02 23:59:27;;;;;;;7.07;3.40;;;25.40;99.90;;;;;;4904518;29;20040;-92
